Time;durP1;ratioP1;P1;durP2;ratioP2;P2;SDS_P1;SDS_P2;PMS_P1;PMS_P2;Temp;Humidity;BMP_temperature;BMP_pressure;BME280_temperature;BME280_humidity;BME280_pressure;Samples;Min_cycle;Max_cycle;Signal;HPM_P1;HPM_P2
2023/01/05 00:00:01;;;;;;;2.85;0.90;;;;;;;;;;5006018;28;20026;-75
2023/01/05 00:02:28;;;;;;;2.15;0.98;;;;;;;;;;5007443;28;20033;-75
2023/01/05 00:04:54;;;;;;;2.65;0.80;;;;;;;;;;5004449;28;20037;-75
2023/01/05 00:07:20;;;;;;;3.05;1.30;;;;;;;;;;5000112;28;20026;-74
2023/01/05 00:09:46;;;;;;;2.15;0.85;;;;;;;;;;4996412;28;20030;-76
2023/01/05 00:23:10;;;;;;;4.55;1.70;;;;;;;;;;5012877;28;20235;-76
2023/01/05 00:25:37;;;;;;;4.45;1.58;;;;;;;;;;5012230;28;20018;-78
2023/01/05 00:28:04;;;;;;;3.30;1.00;;;;;;;;;;4997083;28;20035;-75
2023/01/05 00:30:31;;;;;;;3.00;0.70;;;;;;;;;;4957642;28;20027;-75
2023/01/05 00:32:57;;;;;;;3.08;1.45;;;;;;;;;;4959815;28;20026;-75
2023/01/05 00:35:23;;;;;;;7.93;1.27;;;;;;;;;;4977271;28;20022;-75
2023/01/05 00:37:49;;;;;;;2.42;0.90;;;;;;;;;;4969451;28;20397;-75
2023/01/05 00:40:17;;;;;;;5.95;1.10;;;;;;;;;;4984344;28;20026;-76
2023/01/05 00:42:43;;;;;;;3.83;1.40;;;;;;;;;;4989528;28;20053;-75
2023/01/05 00:45:10;;;;;;;3.20;1.10;;;;;;;;;;4986425;28;20427;-75
2023/01/05 00:47:36;;;;;;;6.05;1.70;;;;;;;;;;4991527;28;20018;-75
2023/01/05 00:50:03;;;;;;;2.40;0.68;;;;;;;;;;4974969;28;20033;-74
2023/01/05 00:52:29;;;;;;;5.30;1.17;;;;;;;;;;4992034;28;20381;-75
2023/01/05 00:54:55;;;;;;;6.75;2.20;;;;;;;;;;4991980;28;20101;-76
2023/01/05 00:57:21;;;;;;;3.17;0.98;;;;;;;;;;4966715;28;20488;-73
2023/01/05 00:59:47;;;;;;;4.60;1.30;;;;;;;;;;4982708;28;20026;-74
2023/01/05 01:02:13;;;;;;;3.85;1.45;;;;;;;;;;4985883;28;20030;-75
2023/01/05 01:04:39;;;;;;;4.20;1.70;;;;;;;;;;4984640;28;20019;-76
2023/01/05 01:07:06;;;;;;;3.83;1.00;;;;;;;;;;4973441;28;20037;-75
2023/01/05 01:09:32;;;;;;;3.65;1.00;;;;;;;;;;4967984;28;20473;-74
2023/01/05 01:11:58;;;;;;;3.50;0.80;;;;;;;;;;4972612;28;20106;-73
2023/01/05 01:14:25;;;;;;;4.78;0.77;;;;;;;;;;4972629;28;20034;-74
2023/01/05 01:16:51;;;;;;;2.45;0.73;;;;;;;;;;4974210;28;20053;-74
2023/01/05 01:19:20;;;;;;;5.13;1.65;;;;;;;;;;4971966;28;20023;-73
2023/01/05 01:21:46;;;;;;;2.63;0.80;;;;;;;;;;4961969;28;20437;-75
2023/01/05 01:24:15;;;;;;;6.40;1.65;;;;;;;;;;4991633;28;20042;-74
2023/01/05 01:26:41;;;;;;;5.82;2.13;;;;;;;;;;4991592;28;20060;-73
2023/01/05 01:29:07;;;;;;;5.38;1.05;;;;;;;;;;4966989;28;20069;-73
2023/01/05 01:31:34;;;;;;;3.88;1.30;;;;;;;;;;4984326;28;20034;-72
2023/01/05 01:34:00;;;;;;;3.88;1.30;;;;;;;;;;4982311;28;20026;-75
2023/01/05 01:36:26;;;;;;;4.97;1.30;;;;;;;;;;4983116;28;20031;-74
2023/01/05 01:38:52;;;;;;;8.00;1.60;;;;;;;;;;4989024;28;20133;-74
2023/01/05 01:41:18;;;;;;;6.72;1.55;;;;;;;;;;4987557;28;20019;-74
2023/01/05 01:43:48;;;;;;;4.57;1.33;;;;;;;;;;4972639;28;20019;-74
2023/01/05 01:46:15;;;;;;;7.03;1.75;;;;;;;;;;4967264;28;20031;-73
2023/01/05 01:48:44;;;;;;;6.53;1.40;;;;;;;;;;4993087;28;20022;-74
2023/01/05 01:51:18;;;;;;;5.18;1.73;;;;;;;;;;4989904;28;20036;-75
2023/01/05 01:53:46;;;;;;;5.13;1.27;;;;;;;;;;4980326;28;20026;-75
2023/01/05 01:56:14;;;;;;;5.88;1.50;;;;;;;;;;4992059;28;20053;-75
2023/01/05 01:58:40;;;;;;;9.55;1.90;;;;;;;;;;4990997;28;20076;-78
2023/01/05 02:01:06;;;;;;;6.82;1.88;;;;;;;;;;4991296;28;20022;-74
2023/01/05 02:03:32;;;;;;;8.05;2.47;;;;;;;;;;4973711;28;20025;-76
2023/01/05 02:05:59;;;;;;;8.88;2.47;;;;;;;;;;4991091;28;20027;-75
2023/01/05 02:08:30;;;;;;;6.93;1.95;;;;;;;;;;4990508;28;20019;-75
2023/01/05 02:10:56;;;;;;;7.28;1.80;;;;;;;;;;4974797;28;20051;-76
2023/01/05 02:13:28;;;;;;;9.02;2.28;;;;;;;;;;4954466;28;20555;-75
2023/01/05 02:16:05;;;;;;;6.95;2.35;;;;;;;;;;4971541;28;20504;-75
2023/01/05 02:18:50;;;;;;;9.23;2.22;;;;;;;;;;4970957;28;20118;-72
2023/01/05 02:21:22;;;;;;;8.02;1.95;;;;;;;;;;4971531;28;20019;-75
2023/01/05 02:24:06;;;;;;;5.43;2.22;;;;;;;;;;4971505;28;20361;-74
2023/01/05 02:26:32;;;;;;;7.63;2.10;;;;;;;;;;4971338;28;20035;-74
2023/01/05 02:29:01;;;;;;;7.32;1.67;;;;;;;;;;4970828;28;20035;-73
2023/01/05 02:31:47;;;;;;;6.40;1.42;;;;;;;;;;4971595;28;20089;-73
2023/01/05 02:34:22;;;;;;;8.77;2.22;;;;;;;;;;4971190;28;20023;-74
2023/01/05 02:36:54;;;;;;;9.70;2.53;;;;;;;;;;4971344;28;20027;-75
2023/01/05 02:39:24;;;;;;;6.53;1.65;;;;;;;;;;4990452;28;20022;-75
2023/01/05 02:41:53;;;;;;;6.53;1.95;;;;;;;;;;4982840;28;20038;-74
2023/01/05 02:44:19;;;;;;;7.88;1.60;;;;;;;;;;4971942;28;20106;-74
2023/01/05 02:46:46;;;;;;;7.57;2.38;;;;;;;;;;4971301;28;20027;-75
2023/01/05 02:49:15;;;;;;;7.32;1.85;;;;;;;;;;4970775;28;20030;-75
2023/01/05 02:51:45;;;;;;;8.68;2.42;;;;;;;;;;4977397;28;20117;-75
2023/01/05 02:54:19;;;;;;;8.93;1.95;;;;;;;;;;4974708;28;20033;-75
2023/01/05 02:56:52;;;;;;;10.45;2.42;;;;;;;;;;4994367;28;20511;-72
2023/01/05 02:59:22;;;;;;;9.68;1.70;;;;;;;;;;4994117;28;20028;-75
2023/01/05 03:01:53;;;;;;;8.48;2.03;;;;;;;;;;4994303;28;20101;-73
2023/01/05 03:04:24;;;;;;;10.23;2.97;;;;;;;;;;4994265;28;20477;-75
2023/01/05 03:06:55;;;;;;;;;;;;;;;;;;4977283;28;20122;-76
2023/01/05 03:09:24;;;;;;;13.07;3.27;;;;;;;;;;5001191;28;20376;-75
2023/01/05 03:14:59;;;;;;;6.32;2.13;;;;;;;;;;4989849;28;20037;-74
2023/01/05 03:17:32;;;;;;;9.90;1.92;;;;;;;;;;4981429;28;20516;-75
2023/01/05 03:19:58;;;;;;;8.68;2.20;;;;;;;;;;4990191;28;20559;-75
2023/01/05 03:36:17;;;;;;;7.72;2.60;;;;;;;;;;4973988;28;20081;-74
2023/01/05 03:38:45;;;;;;;10.52;2.70;;;;;;;;;;4973334;28;20034;-75
2023/01/05 03:41:12;;;;;;;13.65;2.25;;;;;;;;;;4990245;28;20033;-73
2023/01/05 03:43:38;;;;;;;8.70;2.58;;;;;;;;;;4956770;28;20126;-75
2023/01/05 03:46:13;;;;;;;11.98;2.65;;;;;;;;;;4974738;28;20027;-76
2023/01/05 03:48:39;;;;;;;10.07;2.25;;;;;;;;;;4978665;28;20027;-77
2023/01/05 03:51:06;;;;;;;8.70;2.15;;;;;;;;;;4974038;28;20046;-76
2023/01/05 03:53:32;;;;;;;6.30;2.13;;;;;;;;;;4974191;28;20425;-74
2023/01/05 03:55:58;;;;;;;10.00;2.75;;;;;;;;;;4974279;28;20085;-75
2023/01/05 03:58:24;;;;;;;7.75;2.05;;;;;;;;;;4974741;28;20033;-75
2023/01/05 04:00:50;;;;;;;11.55;2.33;;;;;;;;;;4974528;28;20404;-76
2023/01/05 04:03:16;;;;;;;5.85;2.03;;;;;;;;;;4977332;28;20018;-76
2023/01/05 04:05:42;;;;;;;7.20;2.03;;;;;;;;;;4975899;28;20026;-76
2023/01/05 04:08:08;;;;;;;12.90;2.88;;;;;;;;;;4992040;28;20399;-74
2023/01/05 04:10:34;;;;;;;9.40;2.38;;;;;;;;;;4980250;28;20069;-76
2023/01/05 04:13:00;;;;;;;11.98;2.92;;;;;;;;;;4973469;28;20070;-75
2023/01/05 04:15:26;;;;;;;6.93;2.10;;;;;;;;;;4973854;28;20027;-76
2023/01/05 04:17:52;;;;;;;11.13;2.25;;;;;;;;;;4972588;28;20023;-75
2023/01/05 04:20:18;;;;;;;10.90;3.05;;;;;;;;;;4974988;28;20111;-73
2023/01/05 04:22:44;;;;;;;12.57;2.83;;;;;;;;;;4977880;28;20034;-74
2023/01/05 04:25:10;;;;;;;8.65;2.38;;;;;;;;;;4973593;28;20078;-75
2023/01/05 04:27:36;;;;;;;10.93;3.17;;;;;;;;;;4955155;28;20422;-74
2023/01/05 04:30:02;;;;;;;10.13;2.35;;;;;;;;;;4973211;28;20027;-73
2023/01/05 04:32:28;;;;;;;12.73;3.30;;;;;;;;;;4973474;28;20031;-76
2023/01/05 04:34:54;;;;;;;14.25;2.15;;;;;;;;;;4973223;28;20441;-75
2023/01/05 04:37:20;;;;;;;9.52;1.95;;;;;;;;;;4972335;28;20034;-74
2023/01/05 04:39:46;;;;;;;9.25;2.83;;;;;;;;;;4973280;28;20023;-74
2023/01/05 04:42:12;;;;;;;10.18;2.65;;;;;;;;;;4975349;28;20370;-75
2023/01/05 04:44:38;;;;;;;12.85;2.97;;;;;;;;;;4973858;28;20023;-74
2023/01/05 04:47:04;;;;;;;8.68;1.83;;;;;;;;;;4974401;28;20022;-73
2023/01/05 04:49:30;;;;;;;9.13;2.65;;;;;;;;;;4992577;28;20018;-74
2023/01/05 04:51:56;;;;;;;10.40;2.20;;;;;;;;;;4992519;28;20030;-74
2023/01/05 04:54:22;;;;;;;12.13;2.53;;;;;;;;;;4975634;28;20022;-74
2023/01/05 04:56:48;;;;;;;8.70;1.80;;;;;;;;;;4976815;28;20053;-75
2023/01/05 04:59:14;;;;;;;13.13;2.90;;;;;;;;;;4993728;28;20077;-74
2023/01/05 05:01:40;;;;;;;10.60;2.58;;;;;;;;;;4988024;28;20022;-75
2023/01/05 05:04:06;;;;;;;16.65;3.38;;;;;;;;;;4975362;28;20023;-74
2023/01/05 05:06:32;;;;;;;12.18;2.55;;;;;;;;;;4974832;28;20370;-75
2023/01/05 05:08:58;;;;;;;9.27;2.53;;;;;;;;;;4957442;28;20054;-75
2023/01/05 05:11:24;;;;;;;14.38;3.17;;;;;;;;;;4958166;28;20023;-74
2023/01/05 05:13:50;;;;;;;10.70;2.05;;;;;;;;;;4976026;28;20026;-74
2023/01/05 05:16:16;;;;;;;14.05;2.80;;;;;;;;;;4986607;28;20030;-76
2023/01/05 05:18:42;;;;;;;8.38;2.63;;;;;;;;;;4995804;28;20031;-74
2023/01/05 05:21:08;;;;;;;8.77;2.90;;;;;;;;;;4995324;28;20018;-75
2023/01/05 05:23:34;;;;;;;10.00;2.28;;;;;;;;;;4994674;28;20039;-75
2023/01/05 05:26:00;;;;;;;14.88;3.28;;;;;;;;;;4979882;28;20102;-73
2023/01/05 05:28:27;;;;;;;12.13;2.80;;;;;;;;;;4960082;28;20078;-74
2023/01/05 05:30:54;;;;;;;13.07;2.60;;;;;;;;;;4981235;28;20049;-74
2023/01/05 05:33:20;;;;;;;12.25;3.45;;;;;;;;;;5001407;28;20053;-77
2023/01/05 05:35:46;;;;;;;13.98;2.58;;;;;;;;;;5000478;28;20026;-75
2023/01/05 05:38:12;;;;;;;8.75;2.72;;;;;;;;;;4981816;28;20035;-75
2023/01/05 05:40:38;;;;;;;14.23;3.83;;;;;;;;;;4972579;28;20397;-74
2023/01/05 05:43:04;;;;;;;15.50;2.80;;;;;;;;;;4974444;28;20034;-77
2023/01/05 05:45:30;;;;;;;8.90;2.80;;;;;;;;;;4972328;28;20046;-77
2023/01/05 05:47:56;;;;;;;9.63;2.67;;;;;;;;;;4980027;28;20540;-75
2023/01/05 05:50:22;;;;;;;10.25;2.20;;;;;;;;;;4980116;28;20031;-76
2023/01/05 05:52:49;;;;;;;14.32;3.97;;;;;;;;;;4972108;28;20035;-75
2023/01/05 05:55:15;;;;;;;12.68;2.88;;;;;;;;;;4971890;28;20553;-76
2023/01/05 05:57:41;;;;;;;14.88;3.08;;;;;;;;;;4977961;28;20067;-74
2023/01/05 06:00:07;;;;;;;8.27;2.63;;;;;;;;;;4990817;28;20026;-76
2023/01/05 06:02:33;;;;;;;10.43;2.63;;;;;;;;;;4991397;28;20033;-73
2023/01/05 06:04:59;;;;;;;8.32;2.78;;;;;;;;;;4991029;28;20014;-74
2023/01/05 06:07:25;;;;;;;13.95;2.42;;;;;;;;;;4972760;28;20026;-73
2023/01/05 06:09:51;;;;;;;8.68;2.22;;;;;;;;;;4991413;28;20027;-74
2023/01/05 06:12:17;;;;;;;12.63;3.08;;;;;;;;;;4990910;28;20053;-74
2023/01/05 06:14:43;;;;;;;11.85;2.78;;;;;;;;;;4991700;28;20404;-75
2023/01/05 06:17:09;;;;;;;11.13;2.47;;;;;;;;;;4973752;28;20030;-75
2023/01/05 06:19:35;;;;;;;16.65;2.85;;;;;;;;;;4991468;28;20465;-76
2023/01/05 06:22:01;;;;;;;11.10;2.30;;;;;;;;;;4981721;28;20030;-74
2023/01/05 06:24:27;;;;;;;12.85;3.13;;;;;;;;;;4971697;28;20066;-74
2023/01/05 06:26:53;;;;;;;13.45;2.90;;;;;;;;;;4954329;28;20062;-74
2023/01/05 06:29:19;;;;;;;11.07;2.65;;;;;;;;;;4973725;28;20019;-74
2023/01/05 06:31:45;;;;;;;12.82;2.60;;;;;;;;;;4975632;28;20133;-75
2023/01/05 06:34:11;;;;;;;8.23;2.58;;;;;;;;;;4975018;28;20035;-74
2023/01/05 06:36:37;;;;;;;13.38;2.70;;;;;;;;;;4957989;28;20023;-74
2023/01/05 06:39:03;;;;;;;12.07;3.55;;;;;;;;;;4974617;28;20090;-75
2023/01/05 06:41:29;;;;;;;11.65;2.30;;;;;;;;;;4977244;28;20026;-75
2023/01/05 06:43:55;;;;;;;9.02;2.75;;;;;;;;;;4975407;28;20027;-75
2023/01/05 06:46:22;;;;;;;9.50;2.72;;;;;;;;;;4987465;28;20022;-76
2023/01/05 06:48:48;;;;;;;8.93;2.40;;;;;;;;;;4994168;28;20027;-74
2023/01/05 06:51:14;;;;;;;9.13;2.10;;;;;;;;;;4994565;28;20151;-75
2023/01/05 06:53:40;;;;;;;10.70;2.72;;;;;;;;;;4994951;28;20069;-74
2023/01/05 06:56:06;;;;;;;12.95;2.42;;;;;;;;;;4994574;28;20023;-75
2023/01/05 06:58:32;;;;;;;8.43;2.13;;;;;;;;;;4993949;28;20054;-74
2023/01/05 07:00:58;;;;;;;11.43;2.67;;;;;;;;;;4993710;28;20057;-75
2023/01/05 07:03:24;;;;;;;11.52;2.95;;;;;;;;;;4975593;28;20022;-75
2023/01/05 07:05:51;;;;;;;12.73;2.75;;;;;;;;;;4974859;28;20101;-74
2023/01/05 07:08:17;;;;;;;9.63;2.40;;;;;;;;;;4974316;28;20058;-74
2023/01/05 07:10:43;;;;;;;13.90;2.85;;;;;;;;;;4975068;28;20054;-74
2023/01/05 07:13:09;;;;;;;13.23;3.03;;;;;;;;;;4981633;28;20121;-73
2023/01/05 07:15:35;;;;;;;8.32;2.40;;;;;;;;;;4978928;28;20118;-74
2023/01/05 07:18:01;;;;;;;9.38;2.72;;;;;;;;;;4977577;28;20121;-75
2023/01/05 07:20:27;;;;;;;8.82;2.53;;;;;;;;;;4970941;28;20062;-75
2023/01/05 07:22:53;;;;;;;11.30;2.80;;;;;;;;;;4990829;28;20100;-77
2023/01/05 07:25:19;;;;;;;6.90;1.88;;;;;;;;;;4974906;28;20474;-75
2023/01/05 07:27:50;;;;;;;7.85;3.17;;;;;;;;;;4981314;28;20081;-76
2023/01/05 07:30:17;;;;;;;12.43;2.58;;;;;;;;;;4983647;28;20037;-75
2023/01/05 07:32:43;;;;;;;8.63;2.72;;;;;;;;;;4965640;28;20042;-75
2023/01/05 07:35:09;;;;;;;11.18;3.15;;;;;;;;;;4975492;28;20033;-73
2023/01/05 07:37:35;;;;;;;13.27;2.95;;;;;;;;;;4979578;28;20036;-75
2023/01/05 07:40:01;;;;;;;12.13;2.97;;;;;;;;;;4994003;28;20077;-74
2023/01/05 07:42:27;;;;;;;11.30;3.03;;;;;;;;;;4981915;28;20022;-75
2023/01/05 07:44:53;;;;;;;9.65;2.53;;;;;;;;;;4957163;28;20050;-73
2023/01/05 07:47:19;;;;;;;8.57;2.80;;;;;;;;;;4993078;28;20038;-74
2023/01/05 07:49:45;;;;;;;14.23;3.45;;;;;;;;;;4987090;28;20042;-75
2023/01/05 07:52:11;;;;;;;9.27;2.88;;;;;;;;;;4974463;28;20035;-75
2023/01/05 07:54:37;;;;;;;16.40;3.78;;;;;;;;;;4974213;28;20346;-73
2023/01/05 07:57:03;;;;;;;11.05;2.42;;;;;;;;;;4973440;28;20031;-73
2023/01/05 07:59:29;;;;;;;14.95;3.17;;;;;;;;;;4961630;28;20022;-74
2023/01/05 08:01:55;;;;;;;14.00;3.83;;;;;;;;;;4994473;28;20018;-74
2023/01/05 08:04:21;;;;;;;10.35;3.20;;;;;;;;;;4977511;28;20037;-74
2023/01/05 08:06:47;;;;;;;9.48;2.40;;;;;;;;;;4995103;28;20493;-74
2023/01/05 08:12:06;;;;;;;7.78;2.90;;;;;;;;;;4960803;28;20110;-75
2023/01/05 08:14:32;;;;;;;11.60;2.95;;;;;;;;;;4990066;28;20037;-75
2023/01/05 08:16:58;;;;;;;12.52;3.28;;;;;;;;;;4999320;28;20121;-74
2023/01/05 08:19:24;;;;;;;11.27;2.92;;;;;;;;;;5004413;28;20045;-75
2023/01/05 08:21:50;;;;;;;9.60;2.55;;;;;;;;;;5004714;28;20052;-72
2023/01/05 08:24:16;;;;;;;10.82;2.70;;;;;;;;;;4992546;28;20102;-74
2023/01/05 08:26:42;;;;;;;10.95;2.88;;;;;;;;;;4981735;28;20041;-73
2023/01/05 08:29:08;;;;;;;9.23;2.53;;;;;;;;;;4976430;28;20495;-74
2023/01/05 08:31:36;;;;;;;11.55;2.90;;;;;;;;;;4956356;28;20027;-73
2023/01/05 08:34:02;;;;;;;8.32;2.65;;;;;;;;;;4970227;28;20485;-71
2023/01/05 08:36:30;;;;;;;10.15;2.97;;;;;;;;;;4973693;28;20027;-74
2023/01/05 08:38:56;;;;;;;9.85;2.83;;;;;;;;;;4972473;28;20035;-74
2023/01/05 08:41:27;;;;;;;12.65;3.92;;;;;;;;;;4979082;28;20023;-73
2023/01/05 08:43:54;;;;;;;12.23;3.25;;;;;;;;;;4992885;28;20018;-71
2023/01/05 08:46:21;;;;;;;11.48;3.10;;;;;;;;;;4992933;28;20385;-72
2023/01/05 08:48:50;;;;;;;12.35;2.90;;;;;;;;;;4992270;28;20044;-73
2023/01/05 08:51:16;;;;;;;9.20;2.90;;;;;;;;;;4993076;28;20033;-74
2023/01/05 08:53:42;;;;;;;10.55;2.17;;;;;;;;;;4986184;28;20046;-74
2023/01/05 08:56:09;;;;;;;13.48;3.17;;;;;;;;;;4956021;28;20050;-74
2023/01/05 08:58:35;;;;;;;14.82;3.35;;;;;;;;;;4985835;28;20033;-73
2023/01/05 09:01:05;;;;;;;8.65;2.92;;;;;;;;;;4992031;28;20107;-74
2023/01/05 09:03:31;;;;;;;12.52;2.20;;;;;;;;;;4990431;28;20040;-75
2023/01/05 09:06:01;;;;;;;10.60;2.78;;;;;;;;;;4990425;28;20034;-73
2023/01/05 09:08:27;;;;;;;8.50;2.38;;;;;;;;;;4989407;28;20037;-73
2023/01/05 09:10:53;;;;;;;9.43;2.40;;;;;;;;;;4971013;28;20089;-74
2023/01/05 09:13:19;;;;;;;7.13;2.40;;;;;;;;;;4970186;28;20019;-74
2023/01/05 09:15:45;;;;;;;13.18;3.05;;;;;;;;;;4982265;28;20110;-75
2023/01/05 09:18:11;;;;;;;13.38;3.20;;;;;;;;;;4970504;28;20045;-74
2023/01/05 09:20:37;;;;;;;11.63;3.13;;;;;;;;;;4972500;28;20023;-75
2023/01/05 09:23:03;;;;;;;8.05;2.63;;;;;;;;;;4971884;28;20034;-74
2023/01/05 09:25:29;;;;;;;14.45;3.40;;;;;;;;;;4959702;28;20476;-75
2023/01/05 09:27:55;;;;;;;11.95;2.85;;;;;;;;;;4990707;28;20031;-73
2023/01/05 09:30:21;;;;;;;8.38;2.85;;;;;;;;;;4991791;28;20077;-71
2023/01/05 09:32:47;;;;;;;10.07;2.85;;;;;;;;;;4991622;28;20376;-74
2023/01/05 09:35:13;;;;;;;12.27;3.00;;;;;;;;;;4989204;28;20404;-72
2023/01/05 09:37:39;;;;;;;6.80;2.40;;;;;;;;;;4970952;28;20536;-75
2023/01/05 09:40:06;;;;;;;8.20;2.53;;;;;;;;;;4972105;28;20034;-74
2023/01/05 09:42:35;;;;;;;10.18;2.90;;;;;;;;;;4986986;28;20073;-74
2023/01/05 09:45:04;;;;;;;10.70;2.80;;;;;;;;;;4991465;28;20046;-75
2023/01/05 09:47:37;;;;;;;11.73;2.72;;;;;;;;;;4990328;28;20022;-74
2023/01/05 09:50:07;;;;;;;9.60;2.38;;;;;;;;;;4991548;28;20022;-74
2023/01/05 09:52:34;;;;;;;7.32;2.42;;;;;;;;;;4991056;28;20026;-74
2023/01/05 09:55:00;;;;;;;13.80;2.92;;;;;;;;;;4990392;28;20480;-75
2023/01/05 09:57:28;;;;;;;11.45;2.50;;;;;;;;;;4969397;23;20152;-75
2023/01/05 09:59:57;;;;;;;7.45;2.45;;;;;;;;;;4994235;28;20507;-76
2023/01/05 10:02:23;;;;;;;10.85;2.05;;;;;;;;;;4997953;28;20015;-77
2023/01/05 10:04:50;;;;;;;7.97;2.40;;;;;;;;;;5005107;28;20087;-75
2023/01/05 10:07:24;;;;;;;4.90;1.83;;;;;;;;;;5011895;28;20080;-76
2023/01/05 10:09:50;;;;;;;10.23;2.45;;;;;;;;;;5005792;28;20025;-76
2023/01/05 10:15:04;;;;;;;6.70;1.90;;;;;;;;;;5006363;28;20037;-76
2023/01/05 10:17:33;;;;;;;7.40;1.80;;;;;;;;;;5011433;28;20025;-76
2023/01/05 10:19:59;;;;;;;8.77;2.00;;;;;;;;;;4999154;28;20026;-77
2023/01/05 10:22:37;;;;;;;7.30;1.80;;;;;;;;;;5006804;28;20421;-76
2023/01/05 10:25:07;;;;;;;3.50;1.25;;;;;;;;;;4998003;28;20045;-77
2023/01/05 10:27:53;;;;;;;4.05;1.33;;;;;;;;;;4996113;28;20088;-77
2023/01/05 10:30:19;;;;;;;5.18;1.75;;;;;;;;;;4990005;28;20282;-76
2023/01/05 10:32:55;;;;;;;7.00;1.52;;;;;;;;;;4997545;28;20034;-77
2023/01/05 10:35:39;;;;;;;5.15;1.30;;;;;;;;;;4981033;28;20518;-77
2023/01/05 10:38:26;;;;;;;3.80;1.60;;;;;;;;;;4998309;28;20022;-75
2023/01/05 10:41:10;;;;;;;7.28;2.33;;;;;;;;;;4991031;28;20420;-76
2023/01/05 10:43:36;;;;;;;10.43;1.75;;;;;;;;;;4998098;28;20053;-76
2023/01/05 10:46:03;;;;;;;8.10;2.25;;;;;;;;;;4998357;28;20034;-77
2023/01/05 10:48:31;;;;;;;8.18;2.08;;;;;;;;;;4997686;28;20049;-77
2023/01/05 10:50:57;;;;;;;7.43;2.78;;;;;;;;;;4999853;28;20018;-78
2023/01/05 10:53:25;;;;;;;5.93;2.22;;;;;;;;;;5019564;28;20447;-78
2023/01/05 10:55:54;;;;;;;6.93;2.67;;;;;;;;;;5023804;28;20056;-76
2023/01/05 10:58:24;;;;;;;8.10;2.58;;;;;;;;;;5016309;28;20030;-77
2023/01/05 11:00:52;;;;;;;11.97;2.50;;;;;;;;;;5002511;28;20029;-78
2023/01/05 11:03:18;;;;;;;8.70;2.50;;;;;;;;;;5002304;28;20767;-78
2023/01/05 11:05:46;;;;;;;7.22;2.33;;;;;;;;;;5004968;28;20026;-78
2023/01/05 11:08:21;;;;;;;7.63;2.40;;;;;;;;;;5004418;28;20034;-79
2023/01/05 11:10:53;;;;;;;8.15;2.70;;;;;;;;;;5019435;28;20057;-78
2023/01/05 11:13:29;;;;;;;8.90;2.65;;;;;;;;;;4986543;28;20023;-78
2023/01/05 11:16:15;;;;;;;9.70;2.92;;;;;;;;;;4998683;28;20026;-79
2023/01/05 11:18:41;;;;;;;11.43;2.95;;;;;;;;;;5011845;28;20042;-79
2023/01/05 11:21:09;;;;;;;9.98;2.67;;;;;;;;;;5005931;28;20033;-80
2023/01/05 11:23:37;;;;;;;13.75;3.05;;;;;;;;;;5003963;28;20092;-79
2023/01/05 11:26:19;;;;;;;11.05;2.20;;;;;;;;;;5004925;28;20058;-80
2023/01/05 11:29:04;;;;;;;10.25;2.55;;;;;;;;;;5001554;28;20050;-80
2023/01/05 11:31:48;;;;;;;10.88;2.15;;;;;;;;;;4994576;28;20042;-78
2023/01/05 11:34:14;;;;;;;7.45;2.20;;;;;;;;;;5005392;28;20018;-78
2023/01/05 11:36:41;;;;;;;6.30;1.77;;;;;;;;;;4984726;28;20133;-79
2023/01/05 11:39:17;;;;;;;6.07;1.90;;;;;;;;;;4987072;28;20029;-77
2023/01/05 11:41:43;;;;;;;10.88;2.10;;;;;;;;;;4973025;28;20022;-77
2023/01/05 11:44:17;;;;;;;6.00;1.95;;;;;;;;;;4985990;28;20042;-77
2023/01/05 11:46:43;;;;;;;6.63;1.73;;;;;;;;;;4992086;28;20121;-77
2023/01/05 11:49:10;;;;;;;5.50;1.75;;;;;;;;;;4991480;28;20056;-78
2023/01/05 11:51:37;;;;;;;4.93;1.63;;;;;;;;;;4989774;28;20701;-77
2023/01/05 11:54:03;;;;;;;4.65;1.85;;;;;;;;;;4987211;28;20034;-78
2023/01/05 11:56:29;;;;;;;6.60;1.70;;;;;;;;;;4986898;28;20115;-77
2023/01/05 11:58:57;;;;;;;4.40;1.13;;;;;;;;;;4978607;28;20110;-78
2023/01/05 12:01:26;;;;;;;6.82;1.67;;;;;;;;;;4990133;28;20026;-77
2023/01/05 12:04:11;;;;;;;4.20;1.60;;;;;;;;;;4993122;28;20026;-77
2023/01/05 12:06:45;;;;;;;5.70;1.65;;;;;;;;;;4974864;28;20027;-77
2023/01/05 12:09:11;;;;;;;6.35;2.20;;;;;;;;;;4979096;28;20031;-79
2023/01/05 12:11:58;;;;;;;5.45;1.45;;;;;;;;;;4994485;28;20061;-77
2023/01/05 12:14:27;;;;;;;5.85;1.50;;;;;;;;;;4994851;28;20026;-78
2023/01/05 12:16:57;;;;;;;6.55;1.80;;;;;;;;;;4994814;28;20125;-78
2023/01/05 12:19:41;;;;;;;5.88;1.52;;;;;;;;;;4994963;28;20466;-78
2023/01/05 12:22:26;;;;;;;5.72;1.60;;;;;;;;;;4994859;28;20029;-77
2023/01/05 12:25:01;;;;;;;4.65;1.58;;;;;;;;;;4994405;28;20068;-78
2023/01/05 12:27:27;;;;;;;5.78;1.48;;;;;;;;;;4993442;28;20547;-78
2023/01/05 12:30:09;;;;;;;4.53;1.45;;;;;;;;;;4988394;28;20039;-78
2023/01/05 12:32:35;;;;;;;5.47;1.50;;;;;;;;;;4974044;28;20034;-77
2023/01/05 12:35:01;;;;;;;5.20;1.40;;;;;;;;;;4972750;28;20346;-78
2023/01/05 12:37:46;;;;;;;4.13;1.00;;;;;;;;;;4974208;28;20482;-78
2023/01/05 12:40:21;;;;;;;6.60;1.63;;;;;;;;;;4976029;28;20034;-78
2023/01/05 12:42:53;;;;;;;7.15;1.50;;;;;;;;;;4973275;28;20041;-77
2023/01/05 12:45:28;;;;;;;3.50;1.25;;;;;;;;;;4975406;28;20035;-77
2023/01/05 12:48:02;;;;;;;5.82;1.50;;;;;;;;;;4973882;28;20026;-77
2023/01/05 12:50:37;;;;;;;3.08;1.23;;;;;;;;;;4974179;28;20034;-78
2023/01/05 12:53:12;;;;;;;3.08;1.15;;;;;;;;;;4974303;28;20034;-77
2023/01/05 12:55:43;;;;;;;6.15;1.30;;;;;;;;;;4991016;28;20080;-79
2023/01/05 12:58:24;;;;;;;4.03;1.10;;;;;;;;;;4993652;28;20027;-79
2023/01/05 13:00:51;;;;;;;4.75;1.75;;;;;;;;;;4995608;28;20022;-78
2023/01/05 13:03:27;;;;;;;4.57;2.10;;;;;;;;;;4995260;28;20018;-78
2023/01/05 13:06:07;;;;;;;8.00;1.77;;;;;;;;;;4993231;28;20100;-78
2023/01/05 13:08:42;;;;;;;5.95;1.55;;;;;;;;;;4995366;28;20032;-77
2023/01/05 13:11:12;;;;;;;5.57;1.73;;;;;;;;;;4998536;28;20030;-79
2023/01/05 13:13:41;;;;;;;6.20;1.70;;;;;;;;;;4995586;28;20118;-79
2023/01/05 13:16:16;;;;;;;6.93;2.05;;;;;;;;;;4993090;28;20038;-79
2023/01/05 13:18:44;;;;;;;7.72;1.88;;;;;;;;;;4992676;28;20508;-78
2023/01/05 13:21:10;;;;;;;8.30;2.08;;;;;;;;;;4990367;28;20030;-77
2023/01/05 13:23:39;;;;;;;5.97;2.05;;;;;;;;;;4990285;28;20057;-78
2023/01/05 13:26:07;;;;;;;7.80;2.30;;;;;;;;;;4990594;28;20022;-78
2023/01/05 13:28:34;;;;;;;9.18;2.30;;;;;;;;;;4988762;28;20026;-79
2023/01/05 13:31:03;;;;;;;7.65;2.42;;;;;;;;;;4982293;28;20144;-79
2023/01/05 13:33:41;;;;;;;8.07;2.15;;;;;;;;;;4984576;28;20057;-76
2023/01/05 13:36:13;;;;;;;6.85;2.47;;;;;;;;;;4973701;28;20048;-76
2023/01/05 13:38:39;;;;;;;7.85;2.03;;;;;;;;;;4990512;28;20027;-77
2023/01/05 13:41:08;;;;;;;8.85;1.83;;;;;;;;;;4993066;28;20098;-76
2023/01/05 13:43:34;;;;;;;4.82;1.50;;;;;;;;;;4992308;28;20023;-77
2023/01/05 13:46:09;;;;;;;9.55;2.22;;;;;;;;;;4982781;28;20037;-76
2023/01/05 13:48:35;;;;;;;8.02;2.03;;;;;;;;;;4971917;28;20022;-78
2023/01/05 13:51:19;;;;;;;9.02;2.00;;;;;;;;;;4973416;28;20496;-76
2023/01/05 13:53:47;;;;;;;8.85;1.92;;;;;;;;;;4971407;28;20034;-77
2023/01/05 13:56:21;;;;;;;8.55;2.20;;;;;;;;;;4972462;28;20496;-78
2023/01/05 13:59:04;;;;;;;6.97;2.42;;;;;;;;;;4972653;28;20283;-76
2023/01/05 14:01:41;;;;;;;10.88;2.92;;;;;;;;;;4974695;28;20469;-77
2023/01/05 14:04:16;;;;;;;11.43;3.08;;;;;;;;;;4980951;28;20521;-77
2023/01/05 14:06:43;;;;;;;8.77;2.83;;;;;;;;;;4984802;28;20030;-77
2023/01/05 14:09:16;;;;;;;8.82;2.53;;;;;;;;;;4991504;28;20026;-77
2023/01/05 14:12:00;;;;;;;8.73;2.47;;;;;;;;;;4973579;28;20026;-77
2023/01/05 14:14:27;;;;;;;11.00;3.20;;;;;;;;;;4972818;28;20034;-76
2023/01/05 14:16:54;;;;;;;9.73;3.00;;;;;;;;;;4972178;28;20023;-77
2023/01/05 14:19:23;;;;;;;13.98;3.85;;;;;;;;;;4982621;28;20029;-78
2023/01/05 14:21:53;;;;;;;13.25;3.60;;;;;;;;;;4992118;28;20129;-78
2023/01/05 14:24:25;;;;;;;9.25;3.30;;;;;;;;;;4990819;28;20029;-77
2023/01/05 14:26:59;;;;;;;17.65;4.07;;;;;;;;;;4991668;28;20026;-76
2023/01/05 14:29:51;;;;;;;9.60;3.15;;;;;;;;;;4986486;28;20023;-77
2023/01/05 14:32:24;;;;;;;13.40;2.97;;;;;;;;;;4988255;28;20039;-77
2023/01/05 14:34:55;;;;;;;8.77;3.55;;;;;;;;;;4972347;28;20501;-77
2023/01/05 14:37:28;;;;;;;12.07;2.50;;;;;;;;;;4976441;28;20476;-76
2023/01/05 14:39:55;;;;;;;8.60;2.45;;;;;;;;;;4991976;28;20377;-78
2023/01/05 14:42:31;;;;;;;5.82;2.67;;;;;;;;;;4991894;28;20022;-77
2023/01/05 14:45:09;;;;;;;6.45;2.40;;;;;;;;;;4991429;28;20030;-75
2023/01/05 14:47:39;;;;;;;5.50;2.33;;;;;;;;;;4971908;28;20031;-77
2023/01/05 14:50:06;;;;;;;6.70;2.05;;;;;;;;;;4974776;28;20027;-77
2023/01/05 14:52:50;;;;;;;5.82;2.53;;;;;;;;;;4975731;28;20035;-78
2023/01/05 14:55:21;;;;;;;9.95;2.85;;;;;;;;;;4975826;28;20163;-76
2023/01/05 14:57:49;;;;;;;6.90;2.15;;;;;;;;;;4971715;28;20235;-77
2023/01/05 15:00:25;;;;;;;3.97;2.05;;;;;;;;;;4974971;28;20409;-77
2023/01/05 15:03:03;;;;;;;7.15;2.28;;;;;;;;;;4975625;28;20098;-79
2023/01/05 15:05:30;;;;;;;8.43;2.20;;;;;;;;;;4973631;28;20047;-78
2023/01/05 15:08:01;;;;;;;6.50;2.30;;;;;;;;;;4972834;28;20027;-77
2023/01/05 15:10:36;;;;;;;6.78;2.35;;;;;;;;;;4974083;28;20050;-78
2023/01/05 15:13:21;;;;;;;7.35;2.42;;;;;;;;;;4975248;28;20031;-78
2023/01/05 15:15:53;;;;;;;8.38;2.40;;;;;;;;;;4975082;28;20030;-77
2023/01/05 15:18:41;;;;;;;4.22;1.80;;;;;;;;;;4973542;28;20029;-77
2023/01/05 15:21:33;;;;;;;5.45;1.80;;;;;;;;;;4975648;28;20019;-79